Johann Essberger — CQKG — position and weather

sailwx.info

Track history (hours):
 
Tides and Currents Weather Stations Pressure Air Temp Water Temp Dewpoint Dewpoint Depression Visibility Wind Speed Wind Dir Waves Ship Positions

Johann Essberger

Last reported at 2018-Feb-19 00:00 UTC. Time now 2018-Feb-19 00:08 UTC.
Position N 59°32' E 023°17'.

Length 100 m; draft 6.9 m.

Type: Ship (hazmat cat B). MMSI: 255804460.

Date/timePositionNaut miles runAvg speedWind from/ knotsBaromVisibWave heightAir tempDewpointWater temp
2018-Feb-19 00:00N 59°32' E 023°17'294 6.5
2018-Feb-17 03:02N 55°15' E 018°51'112.0
2018-Feb-17 02:55N 55°14' E 018°49'512.0
2018-Feb-17 02:30N 55°12' E 018°40'612.1
2018-Feb-17 01:57N 55°10' E 018°30'1212.2
2018-Feb-17 00:58N 55°05' E 018°11'612.3
2018-Feb-17 00:28N 55°02' E 018°01'18512.7
2018-Feb-16 09:57N 54°44' E 012°42'1512.9
2018-Feb-16 08:47N 54°35' E 012°20'312.0
2018-Feb-16 08:30N 54°33' E 012°16'612.2
2018-Feb-16 07:59N 54°27' E 012°13'510.5
2018-Feb-16 07:30N 54°24' E 012°05'611.3
2018-Feb-16 07:00N 54°24' E 011°56'1010.5
2018-Feb-16 06:02N 54°27' E 011°39'011.0
2018-Feb-16 05:59N 54°27' E 011°38'511.0
2018-Feb-16 05:30N 54°29' E 011°30'611.1
2018-Feb-16 05:00N 54°32' E 011°21'510.5
2018-Feb-16 04:30N 54°34' E 011°13'5 9.9
2018-Feb-16 04:00N 54°35' E 011°05'611.1
2018-Feb-16 03:30N 54°34' E 010°55'611.6
2018-Feb-16 03:00N 54°34' E 010°45'34 6.8
2018-Feb-15 22:02N 54°22' E 009°51'0 8.0
2018-Feb-15 22:00N 54°22' E 009°50'3 6.1
2018-Feb-15 21:30N 54°21' E 009°46'1 1.7
2018-Feb-15 21:00N 54°20' E 009°44'3 6.4
2018-Feb-15 20:30N 54°18' E 009°41'3 6.9
2018-Feb-15 20:00N 54°15' E 009°37'3 6.1
2018-Feb-15 19:30N 54°13' E 009°34'4 8.2
2018-Feb-15 19:00N 54°11' E 009°28'4 7.9
2018-Feb-15 18:30N 54°09' E 009°22'0 0.6
2018-Feb-15 18:00N 54°09' E 009°22'2 3.7
2018-Feb-15 17:30N 54°07' E 009°20'4 8.3
2018-Feb-15 17:00N 54°03' E 009°18'4 8.0
2018-Feb-15 16:30N 53°59' E 009°17'4 8.2
2018-Feb-15 16:00N 53°56' E 009°13'3 7.0
2018-Feb-15 15:31N 53°54' E 009°09'0 0.1
2018-Feb-15 15:00N 53°54' E 009°09'1 2.7
2018-Feb-15 14:31N 53°53' E 009°07'1 1.8
2018-Feb-15 14:00N 53°53' E 009°05'0 0.3
2018-Feb-15 13:26N 53°53' E 009°06'0 0.0
2018-Feb-15 12:59N 53°53' E 009°06'0 0.1
2018-Feb-15 12:30N 53°53' E 009°06'2 5.0
2018-Feb-15 12:00N 53°52' E 009°02'814.9
2018-Feb-15 11:27N 53°50' E 008°48'813.4
2018-Feb-15 10:51N 53°56' E 008°39'514.6
2018-Feb-15 10:30N 53°58' E 008°31'714.5
2018-Feb-15 10:00N 53°59' E 008°19'613.1
2018-Feb-15 09:31N 53°59' E 008°08'713.9
2018-Feb-15 09:00N 53°58' E 007°56'13312.0
2018-Feb-14 21:54N 53°09' E 004°28'512.2
2018-Feb-14 21:30N 53°04' E 004°24'612.3
2018-Feb-14 21:00N 52°59' E 004°19'612.5
2018-Feb-14 20:30N 52°53' E 004°16'1911.9
2018-Feb-14 18:56N 52°39' E 003°55'69 8.2
2018-Feb-14 10:28N 51°32' E 003°26'611.7
2018-Feb-14 09:59N 51°28' E 003°31'4 8.2
2018-Feb-14 09:30N 51°26' E 003°37'5 9.4
2018-Feb-14 09:00N 51°23' E 003°43'611.9
2018-Feb-14 08:30N 51°21' E 003°52'612.5
2018-Feb-14 08:00N 51°26' E 003°58'510.7
2018-Feb-14 07:30N 51°22' E 004°05'510.8
2018-Feb-14 07:00N 51°22' E 004°13'510.6
2018-Feb-14 06:30N 51°18' E 004°18'2 3.1
2018-Feb-14 06:00N 51°17' E 004°20'1 1.4
2018-Feb-14 05:30N 51°16' E 004°21'1 2.3
2018-Feb-14 04:59N 51°15' E 004°21'0 0.0
2018-Feb-13 18:06N 51°15' E 004°21'0 0.0
2018-Feb-13 18:00N 51°15' E 004°21'1 1.2
2018-Feb-13 17:30N 51°15' E 004°21'0 0.6
2018-Feb-13 17:00N 51°16' E 004°22'0 0.0
2018-Feb-13 16:27N 51°16' E 004°22'  
2018-Feb-11 01:17N 51°16' E 004°22'0 0.0
2018-Feb-11 01:00N 51°16' E 004°22'1 1.2
2018-Feb-11 00:31N 51°16' E 004°21'2 4.3
2018-Feb-11 00:00N 51°18' E 004°20'0 0.0
2018-Feb-10 10:34N 51°18' E 004°20'0 0.0
2018-Feb-10 10:30N 51°18' E 004°20'0 0.2
2018-Feb-10 10:00N 51°18' E 004°20'  
Track history (hours):
 
Tides and Currents Weather Stations Pressure Air Temp Water Temp Dewpoint Dewpoint Depression Visibility Wind Speed Wind Dir Waves Ship Positions

Johann Essberger

Last reported at 2018-Feb-19 00:00 UTC. Time now 2018-Feb-19 00:08 UTC.
Position N 59°32' E 023°17'.

Length 100 m; draft 6.9 m.

Type: Ship (hazmat cat B). MMSI: 255804460.

Date/timePositionNaut miles runAvg speedWind from/ knotsBaromVisibWave heightAir tempDewpointWater temp
2018-Feb-19 00:00N 59°32' E 023°17'294 6.5
2018-Feb-17 03:02N 55°15' E 018°51'112.0
2018-Feb-17 02:55N 55°14' E 018°49'512.0
2018-Feb-17 02:30N 55°12' E 018°40'612.1
2018-Feb-17 01:57N 55°10' E 018°30'1212.2
2018-Feb-17 00:58N 55°05' E 018°11'612.3
2018-Feb-17 00:28N 55°02' E 018°01'18512.7
2018-Feb-16 09:57N 54°44' E 012°42'1512.9
2018-Feb-16 08:47N 54°35' E 012°20'312.0
2018-Feb-16 08:30N 54°33' E 012°16'612.2
2018-Feb-16 07:59N 54°27' E 012°13'510.5
2018-Feb-16 07:30N 54°24' E 012°05'611.3
2018-Feb-16 07:00N 54°24' E 011°56'1010.5
2018-Feb-16 06:02N 54°27' E 011°39'011.0
2018-Feb-16 05:59N 54°27' E 011°38'511.0
2018-Feb-16 05:30N 54°29' E 011°30'611.1
2018-Feb-16 05:00N 54°32' E 011°21'510.5
2018-Feb-16 04:30N 54°34' E 011°13'5 9.9
2018-Feb-16 04:00N 54°35' E 011°05'611.1
2018-Feb-16 03:30N 54°34' E 010°55'611.6
2018-Feb-16 03:00N 54°34' E 010°45'34 6.8
2018-Feb-15 22:02N 54°22' E 009°51'0 8.0
2018-Feb-15 22:00N 54°22' E 009°50'3 6.1
2018-Feb-15 21:30N 54°21' E 009°46'1 1.7
2018-Feb-15 21:00N 54°20' E 009°44'3 6.4
2018-Feb-15 20:30N 54°18' E 009°41'3 6.9
2018-Feb-15 20:00N 54°15' E 009°37'3 6.1
2018-Feb-15 19:30N 54°13' E 009°34'4 8.2
2018-Feb-15 19:00N 54°11' E 009°28'4 7.9
2018-Feb-15 18:30N 54°09' E 009°22'0 0.6
2018-Feb-15 18:00N 54°09' E 009°22'2 3.7
2018-Feb-15 17:30N 54°07' E 009°20'4 8.3
2018-Feb-15 17:00N 54°03' E 009°18'4 8.0
2018-Feb-15 16:30N 53°59' E 009°17'4 8.2
2018-Feb-15 16:00N 53°56' E 009°13'3 7.0
2018-Feb-15 15:31N 53°54' E 009°09'0 0.1
2018-Feb-15 15:00N 53°54' E 009°09'1 2.7
2018-Feb-15 14:31N 53°53' E 009°07'1 1.8
2018-Feb-15 14:00N 53°53' E 009°05'0 0.3
2018-Feb-15 13:26N 53°53' E 009°06'0 0.0
2018-Feb-15 12:59N 53°53' E 009°06'0 0.1
2018-Feb-15 12:30N 53°53' E 009°06'2 5.0
2018-Feb-15 12:00N 53°52' E 009°02'814.9
2018-Feb-15 11:27N 53°50' E 008°48'813.4
2018-Feb-15 10:51N 53°56' E 008°39'514.6
2018-Feb-15 10:30N 53°58' E 008°31'714.5
2018-Feb-15 10:00N 53°59' E 008°19'613.1
2018-Feb-15 09:31N 53°59' E 008°08'713.9
2018-Feb-15 09:00N 53°58' E 007°56'13312.0
2018-Feb-14 21:54N 53°09' E 004°28'512.2
2018-Feb-14 21:30N 53°04' E 004°24'612.3
2018-Feb-14 21:00N 52°59' E 004°19'612.5
2018-Feb-14 20:30N 52°53' E 004°16'1911.9
2018-Feb-14 18:56N 52°39' E 003°55'69 8.2
2018-Feb-14 10:28N 51°32' E 003°26'611.7
2018-Feb-14 09:59N 51°28' E 003°31'4 8.2
2018-Feb-14 09:30N 51°26' E 003°37'5 9.4
2018-Feb-14 09:00N 51°23' E 003°43'611.9
2018-Feb-14 08:30N 51°21' E 003°52'612.5
2018-Feb-14 08:00N 51°26' E 003°58'510.7
2018-Feb-14 07:30N 51°22' E 004°05'510.8
2018-Feb-14 07:00N 51°22' E 004°13'510.6
2018-Feb-14 06:30N 51°18' E 004°18'2 3.1
2018-Feb-14 06:00N 51°17' E 004°20'1 1.4
2018-Feb-14 05:30N 51°16' E 004°21'1 2.3
2018-Feb-14 04:59N 51°15' E 004°21'0 0.0
2018-Feb-13 18:06N 51°15' E 004°21'0 0.0
2018-Feb-13 18:00N 51°15' E 004°21'1 1.2
2018-Feb-13 17:30N 51°15' E 004°21'0 0.6
2018-Feb-13 17:00N 51°16' E 004°22'0 0.0
2018-Feb-13 16:27N 51°16' E 004°22'  
2018-Feb-11 01:17N 51°16' E 004°22'0 0.0
2018-Feb-11 01:00N 51°16' E 004°22'1 1.2
2018-Feb-11 00:31N 51°16' E 004°21'2 4.3
2018-Feb-11 00:00N 51°18' E 004°20'0 0.0
2018-Feb-10 10:34N 51°18' E 004°20'0 0.0
2018-Feb-10 10:30N 51°18' E 004°20'0 0.2
2018-Feb-10 10:00N 51°18' E 004°20'  

Dump ship's entire track history